createdAt,value
2023-05-25T00:02:28.828Z,56.70
2023-05-25T00:04:55.563Z,56.70
2023-05-25T00:07:22.156Z,56.70
2023-05-25T00:09:52.183Z,56.80
2023-05-25T00:12:18.791Z,56.70
2023-05-25T00:14:47.959Z,56.70
2023-05-25T00:17:15.336Z,56.70
2023-05-25T00:19:50.578Z,57.00
2023-05-25T00:22:18.731Z,57.60
2023-05-25T00:24:49.843Z,57.50
2023-05-25T00:27:20.411Z,57.50
2023-05-25T00:29:47.164Z,58.10
2023-05-25T00:32:15.994Z,57.40
2023-05-25T00:34:49.241Z,57.40
2023-05-25T00:37:17.215Z,57.40
2023-05-25T00:39:43.878Z,57.30
2023-05-25T00:42:11.258Z,57.30
2023-05-25T00:44:38.417Z,57.30
2023-05-25T00:47:05.255Z,57.30
2023-05-25T00:49:35.261Z,57.30
2023-05-25T00:52:05.501Z,57.50
2023-05-25T00:54:37.463Z,57.60
2023-05-25T00:57:08.861Z,57.40
2023-05-25T00:59:41.350Z,57.50
2023-05-25T01:02:16.166Z,57.50
2023-05-25T01:05:02.645Z,57.50
2023-05-25T01:07:33.282Z,58.00
2023-05-25T01:10:06.853Z,57.50
2023-05-25T01:12:38.209Z,57.50
2023-05-25T01:15:11.846Z,57.60
2023-05-25T01:17:44.268Z,57.50
2023-05-25T01:20:13.405Z,57.60
2023-05-25T01:22:43.075Z,57.50
2023-05-25T01:25:34.018Z,57.00
2023-05-25T01:28:07.832Z,57.60
2023-05-25T01:30:37.754Z,57.30
2023-05-25T01:33:09.742Z,57.30
2023-05-25T01:35:37.053Z,57.70
2023-05-25T01:38:06.968Z,57.60
2023-05-25T01:40:36.342Z,57.80
2023-05-25T01:43:06.844Z,57.90
2023-05-25T01:45:45.201Z,57.90
2023-05-25T01:48:44.734Z,57.80
2023-05-25T01:51:25.546Z,58.30
2023-05-25T01:54:03.026Z,58.10
2023-05-25T01:56:32.597Z,58.00
2023-05-25T01:59:07.254Z,58.00
2023-05-25T02:01:36.397Z,58.20
2023-05-25T02:04:05.967Z,58.00
2023-05-25T02:06:38.202Z,58.10
2023-05-25T02:09:09.045Z,58.10
2023-05-25T02:11:39.837Z,58.10
2023-05-25T02:14:11.837Z,58.20
2023-05-25T02:16:40.559Z,58.10
2023-05-25T02:19:14.983Z,58.00
2023-05-25T02:21:51.584Z,58.20
2023-05-25T02:24:24.830Z,58.30
2023-05-25T02:26:54.480Z,58.40
2023-05-25T02:29:30.596Z,58.10
2023-05-25T02:31:57.252Z,58.20
2023-05-25T02:34:28.189Z,58.20
2023-05-25T02:36:59.250Z,58.20
2023-05-25T02:39:27.768Z,58.40
2023-05-25T02:41:57.300Z,58.10
2023-05-25T02:44:29.646Z,58.20
2023-05-25T02:46:56.471Z,58.40
2023-05-25T02:49:28.080Z,58.40
2023-05-25T02:51:57.197Z,58.60
2023-05-25T02:54:23.778Z,58.70
2023-05-25T02:56:50.421Z,58.50
2023-05-25T02:59:18.388Z,58.60
2023-05-25T03:01:46.172Z,58.50
2023-05-25T03:04:18.592Z,58.60
2023-05-25T03:06:45.218Z,58.90
2023-05-25T03:09:20.763Z,58.70
2023-05-25T03:11:49.602Z,59.00
2023-05-25T03:14:19.305Z,58.80
2023-05-25T03:16:54.160Z,58.70
2023-05-25T03:19:23.635Z,58.80
2023-05-25T03:21:50.483Z,58.70
2023-05-25T03:24:21.233Z,58.70
2023-05-25T03:26:48.067Z,58.70
2023-05-25T03:29:20.021Z,58.70
2023-05-25T03:31:49.493Z,58.70
2023-05-25T03:34:19.947Z,58.80
2023-05-25T03:36:47.492Z,59.10
2023-05-25T03:39:18.850Z,59.60
2023-05-25T03:41:49.006Z,60.20
2023-05-25T03:44:16.675Z,60.90
2023-05-25T03:46:43.897Z,60.70
2023-05-25T03:49:17.512Z,60.60
2023-05-25T03:51:46.332Z,60.50
2023-05-25T03:54:16.423Z,60.20
2023-05-25T03:56:43.053Z,60.40
2023-05-25T03:59:12.374Z,60.30
2023-05-25T04:01:42.527Z,60.20
2023-05-25T04:04:09.232Z,60.30
2023-05-25T04:06:37.211Z,60.40
2023-05-25T04:09:09.904Z,60.40
2023-05-25T04:11:36.520Z,60.60
2023-05-25T04:14:04.186Z,60.40
2023-05-25T04:16:34.290Z,60.40
2023-05-25T04:19:02.366Z,60.50
2023-05-25T04:21:36.650Z,60.80
2023-05-25T04:24:11.266Z,61.00
2023-05-25T04:26:40.185Z,60.80
2023-05-25T04:29:09.882Z,60.90
2023-05-25T04:32:09.486Z,61.20
2023-05-25T04:34:56.273Z,61.00
2023-05-25T04:37:30.449Z,61.20
2023-05-25T04:39:59.956Z,61.60
2023-05-25T04:42:26.786Z,61.80
2023-05-25T04:44:58.874Z,62.00
2023-05-25T04:47:25.822Z,62.00
2023-05-25T04:49:56.979Z,62.10
2023-05-25T04:52:25.073Z,62.30
2023-05-25T04:54:51.789Z,62.30
2023-05-25T04:57:18.402Z,62.50
2023-05-25T04:59:46.302Z,62.60
2023-05-25T05:02:12.904Z,62.90
2023-05-25T05:04:41.198Z,63.00
2023-05-25T05:07:09.075Z,63.20
2023-05-25T05:09:35.933Z,63.20
2023-05-25T05:12:03.187Z,63.40
2023-05-25T05:14:34.350Z,63.70
2023-05-25T05:17:00.997Z,63.90
2023-05-25T05:19:28.258Z,64.30
2023-05-25T05:21:56.356Z,64.60
2023-05-25T05:24:25.892Z,64.60
2023-05-25T05:26:58.297Z,64.70
2023-05-25T05:29:46.018Z,64.80
2023-05-25T05:32:12.822Z,64.70
2023-05-25T05:34:41.823Z,64.80
2023-05-25T05:37:19.131Z,64.70
2023-05-25T05:39:46.045Z,64.60
2023-05-25T05:42:12.889Z,64.70
2023-05-25T05:44:39.598Z,64.70
2023-05-25T05:47:06.315Z,64.70
2023-05-25T05:49:37.712Z,64.60
2023-05-25T05:52:05.017Z,64.70
2023-05-25T05:54:32.484Z,64.70
2023-05-25T05:57:04.476Z,64.80
2023-05-25T05:59:31.164Z,64.50
2023-05-25T06:01:57.833Z,64.50
2023-05-25T06:04:28.398Z,64.40
2023-05-25T06:06:55.458Z,64.40
2023-05-25T06:09:22.348Z,64.40
2023-05-25T06:11:51.886Z,64.40
2023-05-25T06:14:18.961Z,64.30
2023-05-25T06:16:45.812Z,64.30
2023-05-25T06:19:13.662Z,64.30
2023-05-25T06:21:40.461Z,64.10
2023-05-25T06:24:07.604Z,64.10
2023-05-25T06:26:34.311Z,64.60
2023-05-25T06:29:01.733Z,64.10
2023-05-25T06:31:28.451Z,64.10
2023-05-25T06:33:55.678Z,63.80
2023-05-25T06:36:22.414Z,64.00
2023-05-25T06:38:49.179Z,64.00
2023-05-25T06:41:15.894Z,64.10
2023-05-25T06:43:43.357Z,64.10
2023-05-25T06:46:17.872Z,64.00
2023-05-25T06:48:47.032Z,64.50
2023-05-25T06:51:13.800Z,63.70
2023-05-25T06:53:40.547Z,63.80
2023-05-25T06:56:07.207Z,63.80
2023-05-25T06:58:33.864Z,63.70
2023-05-25T07:01:00.941Z,63.80
2023-05-25T07:03:27.769Z,63.60
2023-05-25T07:05:57.980Z,63.70
2023-05-25T07:08:24.569Z,63.50
2023-05-25T07:10:51.250Z,63.30
2023-05-25T07:13:17.918Z,63.00
2023-05-25T07:15:44.870Z,62.90
2023-05-25T07:18:12.378Z,62.80
2023-05-25T07:20:42.079Z,62.80
2023-05-25T07:23:10.000Z,62.60
2023-05-25T07:25:38.370Z,62.30
2023-05-25T07:28:05.795Z,62.00
2023-05-25T07:30:32.733Z,61.90
2023-05-25T07:32:59.878Z,61.90
2023-05-25T07:35:26.631Z,61.90
2023-05-25T07:38:00.999Z,61.80
2023-05-25T07:40:28.291Z,61.50
2023-05-25T07:42:55.168Z,61.30
2023-05-25T07:45:21.933Z,61.30
2023-05-25T07:47:48.945Z,61.50
2023-05-25T07:50:16.263Z,61.60
2023-05-25T07:52:43.102Z,61.40
2023-05-25T07:55:10.196Z,61.10
2023-05-25T07:57:36.913Z,61.00
2023-05-25T08:00:10.931Z,60.90
2023-05-25T08:02:40.844Z,60.80
2023-05-25T08:05:08.077Z,60.50
2023-05-25T08:07:34.961Z,60.40
2023-05-25T08:10:02.205Z,60.30
2023-05-25T08:12:38.555Z,60.20
2023-05-25T08:15:13.580Z,59.90
2023-05-25T08:17:41.525Z,59.90
2023-05-25T08:20:09.864Z,59.80
2023-05-25T08:22:36.521Z,59.30
2023-05-25T08:25:05.209Z,59.30
2023-05-25T08:27:35.188Z,59.40
2023-05-25T08:30:03.511Z,59.20
2023-05-25T08:32:30.320Z,59.40
2023-05-25T08:34:57.076Z,59.40
2023-05-25T08:37:24.850Z,59.50
2023-05-25T08:39:51.491Z,59.20
2023-05-25T08:42:18.188Z,58.60
2023-05-25T08:44:44.928Z,58.60
2023-05-25T08:47:15.096Z,58.60
2023-05-25T08:49:44.265Z,58.40
2023-05-25T08:52:14.697Z,58.20
2023-05-25T08:54:44.912Z,57.70
2023-05-25T08:57:28.573Z,57.80
2023-05-25T09:00:12.840Z,58.20
2023-05-25T09:02:47.774Z,58.20
2023-05-25T09:05:15.815Z,58.60
2023-05-25T09:07:43.632Z,58.10
2023-05-25T09:10:14.859Z,57.80
2023-05-25T09:12:43.564Z,57.10
2023-05-25T09:15:11.306Z,57.20
2023-05-25T09:17:38.512Z,55.70
2023-05-25T09:20:05.969Z,55.70
2023-05-25T09:22:32.630Z,55.30
2023-05-25T09:24:59.685Z,55.30
2023-05-25T09:27:26.311Z,55.10
2023-05-25T09:29:52.996Z,55.20
2023-05-25T09:32:20.078Z,55.10
2023-05-25T09:34:47.605Z,55.00
2023-05-25T09:37:17.230Z,54.80
2023-05-25T09:39:46.412Z,55.70
2023-05-25T09:42:13.614Z,56.20
2023-05-25T09:44:42.520Z,56.00
2023-05-25T09:47:09.540Z,56.10
2023-05-25T09:49:36.245Z,56.10
2023-05-25T09:52:02.995Z,56.10
2023-05-25T09:54:29.950Z,56.00
2023-05-25T09:56:56.604Z,55.00
2023-05-25T09:59:23.303Z,54.00
2023-05-25T10:01:52.911Z,54.50
2023-05-25T10:04:19.748Z,55.60
2023-05-25T10:06:49.763Z,54.60
2023-05-25T10:09:19.035Z,54.20
2023-05-25T10:11:46.503Z,54.00
2023-05-25T10:14:21.840Z,53.10
2023-05-25T10:16:50.343Z,52.60
2023-05-25T10:19:33.223Z,52.50
2023-05-25T10:22:08.571Z,51.70
2023-05-25T10:24:42.861Z,51.60
2023-05-25T10:27:26.239Z,52.40
2023-05-25T10:29:56.558Z,52.30
2023-05-25T10:32:23.988Z,52.80
2023-05-25T10:34:53.060Z,52.60
2023-05-25T10:37:20.639Z,52.30
2023-05-25T10:39:49.657Z,52.40
2023-05-25T10:42:18.575Z,52.10
2023-05-25T10:44:46.330Z,51.20
2023-05-25T10:47:13.404Z,51.20
2023-05-25T10:49:52.655Z,51.30
2023-05-25T10:52:22.345Z,51.40
2023-05-25T10:54:49.191Z,51.40
2023-05-25T10:57:23.953Z,50.60
2023-05-25T10:59:54.943Z,50.40
2023-05-25T11:02:24.704Z,49.30
2023-05-25T11:05:11.579Z,48.80
2023-05-25T11:07:53.410Z,48.70
2023-05-25T11:10:41.730Z,48.10
2023-05-25T11:13:44.958Z,47.60
2023-05-25T11:16:15.239Z,47.80
2023-05-25T11:18:45.959Z,47.40
2023-05-25T11:21:27.853Z,48.00
2023-05-25T11:23:55.587Z,47.60
2023-05-25T11:26:23.826Z,48.10
2023-05-25T11:28:58.851Z,47.50
2023-05-25T11:31:35.868Z,47.40
2023-05-25T11:34:05.892Z,47.20
2023-05-25T11:36:36.796Z,47.30
2023-05-25T11:39:16.995Z,47.10
2023-05-25T11:41:55.316Z,48.10
2023-05-25T11:44:29.446Z,48.00
2023-05-25T11:46:57.742Z,47.00
2023-05-25T11:49:25.734Z,47.40
2023-05-25T11:51:54.183Z,47.30
2023-05-25T11:54:25.635Z,47.00
2023-05-25T11:56:53.627Z,47.10
2023-05-25T11:59:20.382Z,46.40
2023-05-25T12:01:56.422Z,46.10
2023-05-25T12:04:24.415Z,45.70
2023-05-25T12:06:51.245Z,46.00
2023-05-25T12:09:22.108Z,45.90
2023-05-25T12:11:49.187Z,46.40
2023-05-25T12:14:16.028Z,46.80
2023-05-25T12:16:43.155Z,46.40
2023-05-25T12:19:13.912Z,45.90
2023-05-25T12:21:41.376Z,45.90
2023-05-25T12:24:09.033Z,46.00
2023-05-25T12:26:46.650Z,46.10
2023-05-25T12:29:13.261Z,45.70
2023-05-25T12:31:40.837Z,45.70
2023-05-25T12:34:17.814Z,45.50
2023-05-25T12:36:46.825Z,45.90
2023-05-25T12:39:16.281Z,46.10
2023-05-25T12:41:46.911Z,45.70
2023-05-25T12:44:33.603Z,45.70
2023-05-25T12:47:23.457Z,45.70
2023-05-25T12:49:51.995Z,45.50
2023-05-25T12:52:35.289Z,44.70
2023-05-25T12:55:20.847Z,44.20
2023-05-25T12:57:52.264Z,44.10
2023-05-25T13:00:23.791Z,44.10
2023-05-25T13:02:53.776Z,44.10
2023-05-25T13:05:26.722Z,43.90
2023-05-25T13:07:55.946Z,43.60
2023-05-25T13:10:23.062Z,43.80
2023-05-25T13:12:54.102Z,43.70
2023-05-25T13:15:23.923Z,42.60
2023-05-25T13:17:51.518Z,42.60
2023-05-25T13:20:19.398Z,42.60
2023-05-25T13:22:49.630Z,42.80
2023-05-25T13:25:16.564Z,42.30
2023-05-25T13:27:45.543Z,42.70
2023-05-25T13:30:12.585Z,42.20
2023-05-25T13:32:39.770Z,42.50
2023-05-25T13:35:07.284Z,42.50
2023-05-25T13:37:34.202Z,42.30
2023-05-25T13:40:01.326Z,42.60
2023-05-25T13:42:27.956Z,43.30
2023-05-25T13:44:54.881Z,43.90
2023-05-25T13:47:21.644Z,44.40
2023-05-25T13:49:48.293Z,44.20
2023-05-25T13:52:14.935Z,42.10
2023-05-25T13:54:41.559Z,41.90
2023-05-25T13:57:08.162Z,40.80
2023-05-25T13:59:34.807Z,39.50
2023-05-25T14:02:01.852Z,37.30
2023-05-25T14:04:28.944Z,35.30
2023-05-25T14:06:56.718Z,34.20
2023-05-25T14:09:23.686Z,33.10
2023-05-25T14:11:53.473Z,32.90
2023-05-25T14:14:30.831Z,32.10
2023-05-25T14:17:00.112Z,31.90
2023-05-25T14:19:26.896Z,31.70
2023-05-25T14:22:11.079Z,32.20
2023-05-25T14:24:39.110Z,32.20
2023-05-25T14:27:07.001Z,33.40
2023-05-25T14:29:34.307Z,34.40
2023-05-25T14:32:01.569Z,34.40
2023-05-25T14:34:28.896Z,34.70
2023-05-25T14:36:57.001Z,33.10
2023-05-25T14:39:23.676Z,32.20
2023-05-25T14:41:50.710Z,31.30
2023-05-25T14:44:17.306Z,30.50
2023-05-25T14:46:43.968Z,30.50
2023-05-25T14:49:10.716Z,30.30
2023-05-25T14:51:37.791Z,30.00
2023-05-25T14:54:06.191Z,29.30
2023-05-25T14:56:32.827Z,28.70
2023-05-25T14:59:02.421Z,28.60
2023-05-25T15:01:31.913Z,28.10
2023-05-25T15:03:58.629Z,27.90
2023-05-25T15:06:32.302Z,27.70
2023-05-25T15:09:01.541Z,27.30
2023-05-25T15:11:30.941Z,27.40
2023-05-25T15:14:01.254Z,27.90
2023-05-25T15:16:28.051Z,28.10
2023-05-25T15:18:54.792Z,27.70
2023-05-25T15:21:23.578Z,27.60
2023-05-25T15:23:53.155Z,27.60
2023-05-25T15:26:19.748Z,27.50
2023-05-25T15:28:49.071Z,27.90
2023-05-25T15:31:17.995Z,27.80
2023-05-25T15:33:56.610Z,30.30
2023-05-25T15:36:25.368Z,27.80
2023-05-25T15:38:53.577Z,27.30
2023-05-25T15:41:23.183Z,26.70
2023-05-25T15:43:57.997Z,26.00
2023-05-25T15:46:25.002Z,26.20
2023-05-25T15:48:53.189Z,26.40
2023-05-25T15:51:19.926Z,25.90
2023-05-25T15:53:47.149Z,26.00
2023-05-25T15:56:13.773Z,25.90
2023-05-25T15:58:40.785Z,26.20
2023-05-25T16:01:07.461Z,26.70
2023-05-25T16:03:34.150Z,26.60
2023-05-25T16:06:02.147Z,26.20
2023-05-25T16:08:30.782Z,26.30
2023-05-25T16:10:57.466Z,26.50
2023-05-25T16:13:24.075Z,26.20
2023-05-25T16:15:50.745Z,26.10
2023-05-25T16:18:17.333Z,26.00
2023-05-25T16:20:44.271Z,25.60
2023-05-25T16:23:11.057Z,25.40
2023-05-25T16:25:37.792Z,25.10
2023-05-25T16:28:04.404Z,25.40
2023-05-25T16:30:31.001Z,25.40
2023-05-25T16:33:00.291Z,24.80
2023-05-25T16:35:26.968Z,24.60
2023-05-25T16:37:55.343Z,24.40
2023-05-25T16:40:24.334Z,24.50
2023-05-25T16:42:52.952Z,24.40
2023-05-25T16:45:24.988Z,24.50
2023-05-25T16:47:56.348Z,24.40
2023-05-25T16:50:30.995Z,24.30
2023-05-25T16:52:59.558Z,24.40
2023-05-25T16:55:29.603Z,24.70
2023-05-25T16:57:59.184Z,24.60
2023-05-25T17:00:28.262Z,24.70
2023-05-25T17:02:57.831Z,24.40
2023-05-25T17:05:30.231Z,24.30
2023-05-25T17:07:56.887Z,24.30
2023-05-25T17:10:30.682Z,24.40
2023-05-25T17:12:59.719Z,24.50
2023-05-25T17:15:26.699Z,24.40
2023-05-25T17:17:53.423Z,24.70
2023-05-25T17:20:20.106Z,24.50
2023-05-25T17:22:46.760Z,24.40
2023-05-25T17:25:13.416Z,24.90
2023-05-25T17:27:40.037Z,25.20
2023-05-25T17:30:10.723Z,25.20
2023-05-25T17:32:41.876Z,25.50
2023-05-25T17:35:09.507Z,25.40
2023-05-25T17:37:37.371Z,26.20
2023-05-25T17:40:05.213Z,25.80
2023-05-25T17:42:36.409Z,26.00
2023-05-25T17:45:11.838Z,26.20
2023-05-25T17:47:39.773Z,25.60
2023-05-25T17:50:14.012Z,25.60
2023-05-25T17:52:46.582Z,25.80
2023-05-25T17:55:17.335Z,26.20
2023-05-25T17:57:44.812Z,26.40
2023-05-25T18:00:12.681Z,26.70
2023-05-25T18:02:41.969Z,26.90
2023-05-25T18:05:13.599Z,26.90
2023-05-25T18:07:40.872Z,27.00
2023-05-25T18:10:08.116Z,27.20
2023-05-25T18:12:34.778Z,27.20
2023-05-25T18:15:03.817Z,27.40
2023-05-25T18:17:32.766Z,27.30
2023-05-25T18:19:59.457Z,27.20
2023-05-25T18:22:27.287Z,27.50
2023-05-25T18:24:54.081Z,27.60
2023-05-25T18:27:22.893Z,27.80
2023-05-25T18:29:53.999Z,28.10
2023-05-25T18:32:20.835Z,28.30
2023-05-25T18:34:48.256Z,28.60
2023-05-25T18:37:15.291Z,29.10
2023-05-25T18:39:42.009Z,29.50
2023-05-25T18:42:13.043Z,29.80
2023-05-25T18:44:42.903Z,30.30
2023-05-25T18:47:13.578Z,30.50
2023-05-25T18:49:45.247Z,30.00
2023-05-25T18:52:11.867Z,31.00
2023-05-25T18:54:40.758Z,31.40
2023-05-25T18:57:07.341Z,31.90
2023-05-25T18:59:34.046Z,32.10
2023-05-25T19:02:01.518Z,33.10
2023-05-25T19:04:31.689Z,33.90
2023-05-25T19:07:00.803Z,34.40
2023-05-25T19:09:27.450Z,34.60
2023-05-25T19:11:59.122Z,35.20
2023-05-25T19:14:25.930Z,35.90
2023-05-25T19:16:52.606Z,36.40
2023-05-25T19:19:20.339Z,36.60
2023-05-25T19:21:54.114Z,37.00
2023-05-25T19:24:22.962Z,37.40
2023-05-25T19:26:54.484Z,37.70
2023-05-25T19:29:25.550Z,38.20
2023-05-25T19:31:55.204Z,38.80
2023-05-25T19:34:22.213Z,39.10
2023-05-25T19:36:59.719Z,39.40
2023-05-25T19:39:27.904Z,39.70
2023-05-25T19:41:57.868Z,40.00
2023-05-25T19:44:30.478Z,40.40
2023-05-25T19:47:00.049Z,41.30
2023-05-25T19:49:29.214Z,40.90
2023-05-25T19:51:55.852Z,41.40
2023-05-25T19:54:25.419Z,41.50
2023-05-25T19:56:52.031Z,41.70
2023-05-25T19:59:21.075Z,41.90
2023-05-25T20:01:57.815Z,42.20
2023-05-25T20:04:25.197Z,42.60
2023-05-25T20:06:53.625Z,42.80
2023-05-25T20:09:24.377Z,42.80
2023-05-25T20:11:50.988Z,43.30
2023-05-25T20:14:19.325Z,43.30
2023-05-25T20:16:52.641Z,43.30
2023-05-25T20:19:25.837Z,43.50
2023-05-25T20:21:52.753Z,43.70
2023-05-25T20:24:21.781Z,43.90
2023-05-25T20:26:49.124Z,44.10
2023-05-25T20:29:20.475Z,44.30
2023-05-25T20:31:52.926Z,44.60
2023-05-25T20:34:22.475Z,44.20
2023-05-25T20:36:53.678Z,44.30
2023-05-25T20:39:20.430Z,44.50
2023-05-25T20:41:47.028Z,44.20
2023-05-25T20:44:14.011Z,44.20
2023-05-25T20:46:52.888Z,44.30
2023-05-25T20:49:24.434Z,44.30
2023-05-25T20:51:52.574Z,44.20
2023-05-25T20:54:23.102Z,44.00
2023-05-25T20:56:52.521Z,44.20
2023-05-25T20:59:22.016Z,44.30
2023-05-25T21:01:48.889Z,44.40
2023-05-25T21:04:23.430Z,44.30
2023-05-25T21:06:50.056Z,44.00
2023-05-25T21:09:20.906Z,44.30
2023-05-25T21:11:47.847Z,44.40
2023-05-25T21:14:17.771Z,44.30
2023-05-25T21:16:44.849Z,44.20
2023-05-25T21:19:13.861Z,44.40
2023-05-25T21:21:45.330Z,44.60
2023-05-25T21:24:12.025Z,44.60
2023-05-25T21:26:54.628Z,44.40
2023-05-25T21:29:26.507Z,44.50
2023-05-25T21:31:53.257Z,44.50
2023-05-25T21:34:22.420Z,44.60
2023-05-25T21:36:49.222Z,44.60
2023-05-25T21:39:15.858Z,44.70
2023-05-25T21:41:43.485Z,44.80
2023-05-25T21:44:13.133Z,44.90
2023-05-25T21:46:42.336Z,45.20
2023-05-25T21:49:08.992Z,45.50
2023-05-25T21:51:36.315Z,45.10
2023-05-25T21:54:05.703Z,45.40
2023-05-25T21:56:37.380Z,45.50
2023-05-25T21:59:04.273Z,45.80
2023-05-25T22:01:34.131Z,45.50
2023-05-25T22:04:00.897Z,45.80
2023-05-25T22:06:27.532Z,45.80
2023-05-25T22:08:56.469Z,46.00
2023-05-25T22:11:26.257Z,46.10
2023-05-25T22:13:52.855Z,46.10
2023-05-25T22:16:20.432Z,46.00
2023-05-25T22:18:47.871Z,46.10
2023-05-25T22:21:15.418Z,46.10
2023-05-25T22:23:42.032Z,46.20
2023-05-25T22:26:11.612Z,46.40
2023-05-25T22:28:40.846Z,46.60
2023-05-25T22:31:08.009Z,46.60
2023-05-25T22:33:37.654Z,46.70
2023-05-25T22:36:09.061Z,46.60
2023-05-25T22:38:38.174Z,47.00
2023-05-25T22:41:07.857Z,47.00
2023-05-25T22:43:34.451Z,47.10
2023-05-25T22:46:01.215Z,47.20
2023-05-25T22:48:30.269Z,47.30
2023-05-25T22:50:57.039Z,47.40
2023-05-25T22:53:23.718Z,47.40
2023-05-25T22:55:50.562Z,47.40
2023-05-25T22:58:17.375Z,47.60
2023-05-25T23:00:48.086Z,47.60
2023-05-25T23:03:19.000Z,47.80
2023-05-25T23:05:46.390Z,48.20
2023-05-25T23:08:15.581Z,47.90
2023-05-25T23:10:42.154Z,48.00
2023-05-25T23:13:11.111Z,48.00
2023-05-25T23:15:42.397Z,48.20
2023-05-25T23:18:12.422Z,48.30
2023-05-25T23:20:40.290Z,48.30
2023-05-25T23:23:09.243Z,48.30
2023-05-25T23:25:36.417Z,48.50
2023-05-25T23:28:10.713Z,48.70
2023-05-25T23:30:42.299Z,49.30
2023-05-25T23:33:11.396Z,48.70
2023-05-25T23:35:37.987Z,48.90
2023-05-25T23:38:05.387Z,49.00
2023-05-25T23:40:31.994Z,49.10
2023-05-25T23:43:07.503Z,49.10
2023-05-25T23:45:34.806Z,49.20
2023-05-25T23:48:04.814Z,49.30
2023-05-25T23:50:34.995Z,49.30
2023-05-25T23:53:02.017Z,49.60
2023-05-25T23:55:33.921Z,49.50
2023-05-25T23:58:00.528Z,50.00
